Time;durP1;ratioP1;P1;durP2;ratioP2;P2;SDS_P1;SDS_P2;PMS_P1;PMS_P2;Temp;Humidity;BMP_temperature;BMP_pressure;BME280_temperature;BME280_humidity;BME280_pressure;Samples;Min_cycle;Max_cycle;Signal;HPM_P1;HPM_P2
2021/01/29 00:01:33;;;;;;;26.63;13.83;;;;;;;;;;10250686;28;20237;-74
2021/01/29 00:06:35;;;;;;;31.47;15.77;;;;;;;;;;10254760;28;20225;-75
2021/01/29 00:11:38;;;;;;;26.77;15.60;;;;;;;;;;10251669;28;20242;-75
2021/01/29 00:16:39;;;;;;;31.23;16.60;;;;;;;;;;10257756;28;20218;-75
2021/01/29 00:21:41;;;;;;;27.93;14.57;;;;;;;;;;10250786;28;20226;-75
2021/01/29 00:26:45;;;;;;;31.90;15.60;;;;;;;;;;10253826;28;20222;-74
2021/01/29 00:31:46;;;;;;;28.37;15.40;;;;;;;;;;10251603;28;20246;-75
2021/01/29 00:36:49;;;;;;;29.30;15.33;;;;;;;;;;10255831;28;20679;-75
2021/01/29 00:41:52;;;;;;;31.30;14.93;;;;;;;;;;10247613;28;20302;-75
2021/01/29 00:46:54;;;;;;;27.40;15.37;;;;;;;;;;10255895;28;20679;-75
2021/01/29 00:51:56;;;;;;;30.17;15.33;;;;;;;;;;10249283;28;20301;-74
2021/01/29 00:56:59;;;;;;;24.77;14.90;;;;;;;;;;10248767;28;20211;-75
2021/01/29 01:02:00;;;;;;;22.60;13.40;;;;;;;;;;10244580;28;20256;-74
2021/01/29 01:07:03;;;;;;;24.27;13.93;;;;;;;;;;10252926;28;20233;-75
2021/01/29 01:12:06;;;;;;;21.60;13.33;;;;;;;;;;10248135;28;20249;-74
2021/01/29 01:17:08;;;;;;;22.87;13.23;;;;;;;;;;10252183;28;20213;-75
2021/01/29 01:22:12;;;;;;;21.47;12.63;;;;;;;;;;10248736;28;20655;-76
2021/01/29 01:27:17;;;;;;;22.77;12.60;;;;;;;;;;10251299;28;20693;-75
2021/01/29 01:32:19;;;;;;;20.80;12.43;;;;;;;;;;10232515;28;20242;-75
2021/01/29 01:37:21;;;;;;;22.37;12.50;;;;;;;;;;10255786;28;20218;-75
2021/01/29 01:42:25;;;;;;;20.07;12.07;;;;;;;;;;10254519;28;20698;-74
2021/01/29 01:47:30;;;;;;;18.47;11.23;;;;;;;;;;10245514;28;20210;-74
2021/01/29 01:52:34;;;;;;;18.50;11.03;;;;;;;;;;10225009;28;728516;-75
2021/01/29 01:57:38;;;;;;;13.57;9.37;;;;;;;;;;10249184;28;20683;-75
2021/01/29 02:02:42;;;;;;;14.27;9.10;;;;;;;;;;10250994;28;20249;-75
2021/01/29 02:07:47;;;;;;;14.33;8.60;;;;;;;;;;10228305;28;20219;-75
2021/01/29 02:12:50;;;;;;;11.77;8.40;;;;;;;;;;10250645;28;20246;-75
2021/01/29 02:17:56;;;;;;;11.67;8.47;;;;;;;;;;10248469;28;20229;-75
2021/01/29 02:23:13;;;;;;;11.00;7.83;;;;;;;;;;10246521;28;20225;-74
2021/01/29 02:28:20;;;;;;;11.27;8.20;;;;;;;;;;10251155;28;20584;-75
2021/01/29 02:33:40;;;;;;;9.87;7.53;;;;;;;;;;10245142;28;20238;-75
2021/01/29 02:39:15;;;;;;;12.80;8.10;;;;;;;;;;10248687;28;20222;-75
2021/01/29 02:44:26;;;;;;;10.77;7.77;;;;;;;;;;10244689;28;20210;-75
2021/01/29 02:49:35;;;;;;;12.10;8.17;;;;;;;;;;10250102;28;20245;-76
2021/01/29 02:54:39;;;;;;;11.13;7.53;;;;;;;;;;10242198;28;20229;-75
2021/01/29 02:59:47;;;;;;;11.73;7.67;;;;;;;;;;10245696;28;20241;-75
2021/01/29 03:04:52;;;;;;;14.03;9.20;;;;;;;;;;10256726;28;20615;-75
2021/01/29 03:09:57;;;;;;;12.23;7.83;;;;;;;;;;10258369;28;20234;-74
2021/01/29 03:15:03;;;;;;;10.03;7.63;;;;;;;;;;10258630;28;20229;-75
2021/01/29 03:20:07;;;;;;;10.30;7.30;;;;;;;;;;10255612;28;20206;-75
2021/01/29 03:25:12;;;;;;;13.10;7.67;;;;;;;;;;10255565;28;20223;-75
2021/01/29 03:30:16;;;;;;;11.63;7.73;;;;;;;;;;10255636;28;20245;-75
2021/01/29 03:35:21;;;;;;;10.97;8.17;;;;;;;;;;10258308;28;20215;-75
2021/01/29 03:40:23;;;;;;;9.80;7.53;;;;;;;;;;10255057;28;20605;-75
2021/01/29 03:45:29;;;;;;;9.70;6.90;;;;;;;;;;10257797;28;20285;-75
2021/01/29 03:50:44;;;;;;;10.17;7.27;;;;;;;;;;10249090;28;20314;-75
2021/01/29 03:55:47;;;;;;;10.27;6.93;;;;;;;;;;10234633;28;20213;-74
2021/01/29 04:00:54;;;;;;;8.67;6.40;;;;;;;;;;10245157;28;20234;-75
2021/01/29 04:06:00;;;;;;;8.33;5.80;;;;;;;;;;10252322;28;20614;-74
2021/01/29 04:11:05;;;;;;;8.47;6.50;;;;;;;;;;10238108;28;20237;-74
2021/01/29 04:16:10;;;;;;;9.87;6.23;;;;;;;;;;10247224;28;20603;-75
2021/01/29 04:21:15;;;;;;;9.27;7.07;;;;;;;;;;10256274;28;20309;-75
2021/01/29 04:26:19;;;;;;;9.80;7.20;;;;;;;;;;10247771;28;20214;-75
2021/01/29 04:31:24;;;;;;;9.40;7.37;;;;;;;;;;10252018;28;20237;-75
2021/01/29 04:36:28;;;;;;;9.60;7.43;;;;;;;;;;10250959;28;21071;-74
2021/01/29 04:41:37;;;;;;;12.50;8.00;;;;;;;;;;10248416;28;20226;-74
2021/01/29 04:46:53;;;;;;;9.13;6.73;;;;;;;;;;10254622;28;20225;-74
2021/01/29 04:52:15;;;;;;;10.27;7.30;;;;;;;;;;10248410;28;20240;-74
2021/01/29 04:57:26;;;;;;;11.47;6.40;;;;;;;;;;10247647;28;21683;-75
2021/01/29 05:02:39;;;;;;;8.87;5.73;;;;;;;;;;10249435;28;20237;-74
2021/01/29 05:08:00;;;;;;;6.37;4.90;;;;;;;;;;10247736;28;20218;-75
2021/01/29 05:13:13;;;;;;;5.90;4.40;;;;;;;;;;10248287;28;20242;-75
2021/01/29 05:18:30;;;;;;;5.87;4.00;;;;;;;;;;10252429;28;20218;-75
2021/01/29 05:23:46;;;;;;;4.30;3.33;;;;;;;;;;10247687;28;20224;-74
2021/01/29 05:29:07;;;;;;;5.87;3.50;;;;;;;;;;10249596;28;20987;-75
2021/01/29 05:34:32;;;;;;;5.53;2.57;;;;;;;;;;10255566;28;20245;-74
2021/01/29 05:39:41;;;;;;;3.43;2.40;;;;;;;;;;10239329;28;20679;-85
2021/01/29 05:45:16;;;;;;;4.53;1.80;;;;;;;;;;10251087;28;20223;-75
2021/01/29 05:50:22;;;;;;;2.53;1.60;;;;;;;;;;10080276;29;20740;-75
2021/01/29 05:55:31;;;;;;;3.13;1.50;;;;;;;;;;10207307;28;20218;-78
2021/01/29 06:01:05;;;;;;;5.17;1.40;;;;;;;;;;10245555;28;20599;-74
2021/01/29 06:06:22;;;;;;;4.03;1.60;;;;;;;;;;10232271;28;20241;-75
2021/01/29 06:11:41;;;;;;;4.97;1.70;;;;;;;;;;10241503;28;20249;-75
2021/01/29 06:17:00;;;;;;;2.90;1.40;;;;;;;;;;10245981;28;20559;-80
2021/01/29 06:22:21;;;;;;;4.60;1.57;;;;;;;;;;10243497;28;20218;-71
2021/01/29 06:27:26;;;;;;;5.60;1.90;;;;;;;;;;10249348;28;20666;-78
2021/01/29 06:32:37;;;;;;;5.80;1.50;;;;;;;;;;10249570;28;20450;-75
2021/01/29 06:37:46;;;;;;;6.17;1.90;;;;;;;;;;10258385;28;20531;-76
2021/01/29 06:43:01;;;;;;;5.37;1.80;;;;;;;;;;10244833;28;20221;-76
2021/01/29 06:48:12;;;;;;;8.13;2.10;;;;;;;;;;10258764;28;20222;-76
2021/01/29 06:53:27;;;;;;;6.60;2.03;;;;;;;;;;10253167;28;21018;-76
2021/01/29 06:58:48;;;;;;;7.37;1.93;;;;;;;;;;10253737;28;20249;-80
2021/01/29 07:04:09;;;;;;;6.30;2.00;;;;;;;;;;10250956;28;20828;-76
2021/01/29 07:09:18;;;;;;;11.63;2.13;;;;;;;;;;10254051;28;20221;-75
2021/01/29 07:14:34;;;;;;;6.50;1.60;;;;;;;;;;10249012;28;20711;-76
2021/01/29 07:20:06;;;;;;;3.53;1.37;;;;;;;;;;10251138;28;20214;-75
2021/01/29 07:25:12;;;;;;;3.17;1.30;;;;;;;;;;10255193;28;20232;-76
2021/01/29 07:30:28;;;;;;;5.23;1.70;;;;;;;;;;10253428;28;20711;-77
2021/01/29 07:35:34;;;;;;;7.67;2.10;;;;;;;;;;10254660;28;20598;-75
2021/01/29 07:40:39;;;;;;;9.87;2.07;;;;;;;;;;10252845;28;20215;-75
2021/01/29 07:45:48;;;;;;;6.13;1.90;;;;;;;;;;10250983;28;20221;-74
2021/01/29 07:50:53;;;;;;;8.73;2.30;;;;;;;;;;10232291;28;20241;-74
2021/01/29 07:56:04;;;;;;;12.53;2.43;;;;;;;;;;10248132;28;20226;-74
2021/01/29 08:01:15;;;;;;;15.03;3.10;;;;;;;;;;10250229;28;20215;-75
2021/01/29 08:06:20;;;;;;;14.83;2.90;;;;;;;;;;10252678;28;20225;-75
2021/01/29 08:11:22;;;;;;;14.10;3.77;;;;;;;;;;10256567;28;20264;-75
2021/01/29 08:16:35;;;;;;;15.03;3.17;;;;;;;;;;10254047;28;20211;-74
2021/01/29 08:22:02;;;;;;;13.20;3.03;;;;;;;;;;10252413;28;20352;-75
2021/01/29 08:27:17;;;;;;;11.53;3.03;;;;;;;;;;10255853;28;20591;-75
2021/01/29 08:32:30;;;;;;;18.87;3.60;;;;;;;;;;10258672;28;20229;-75
2021/01/29 08:37:40;;;;;;;18.87;3.70;;;;;;;;;;10250783;28;20222;-75
2021/01/29 08:42:49;;;;;;;19.70;4.07;;;;;;;;;;10254720;28;20237;-75
2021/01/29 08:48:04;;;;;;;20.50;3.97;;;;;;;;;;10248464;28;20347;-74
2021/01/29 08:53:35;;;;;;;28.83;5.10;;;;;;;;;;10253181;28;20237;-73
2021/01/29 08:58:43;;;;;;;21.77;4.07;;;;;;;;;;10245629;28;20645;-76
2021/01/29 09:03:51;;;;;;;23.13;4.67;;;;;;;;;;10250235;28;20238;-75
2021/01/29 09:08:58;;;;;;;22.53;4.53;;;;;;;;;;10247388;28;20254;-75
2021/01/29 09:14:02;;;;;;;24.67;4.47;;;;;;;;;;10250795;28;20242;-74
2021/01/29 09:19:07;;;;;;;26.70;5.10;;;;;;;;;;10252997;28;20222;-74
2021/01/29 09:24:12;;;;;;;28.97;4.93;;;;;;;;;;10246882;28;21070;-74
2021/01/29 09:29:17;;;;;;;27.03;4.97;;;;;;;;;;10249763;28;20206;-74
2021/01/29 09:34:27;;;;;;;30.20;5.23;;;;;;;;;;10250238;28;20238;-74
2021/01/29 09:39:32;;;;;;;26.53;5.33;;;;;;;;;;10251317;28;20667;-73
2021/01/29 09:44:38;;;;;;;24.37;4.70;;;;;;;;;;10245401;28;20226;-74
2021/01/29 09:49:41;;;;;;;22.97;4.50;;;;;;;;;;10244063;28;20222;-74
2021/01/29 09:54:48;;;;;;;25.63;5.43;;;;;;;;;;10243566;28;20241;-76
2021/01/29 09:59:59;;;;;;;23.30;4.50;;;;;;;;;;10244557;28;20218;-75
2021/01/29 10:05:13;;;;;;;22.00;4.70;;;;;;;;;;10249182;28;20233;-76
2021/01/29 10:10:19;;;;;;;25.87;4.97;;;;;;;;;;10246964;28;20571;-74
2021/01/29 10:15:23;;;;;;;25.53;5.20;;;;;;;;;;10244009;28;20319;-74
2021/01/29 10:20:29;;;;;;;21.73;4.37;;;;;;;;;;10246207;28;20718;-75
2021/01/29 10:25:38;;;;;;;25.10;4.83;;;;;;;;;;10247300;28;20210;-75
2021/01/29 10:30:58;;;;;;;26.23;4.90;;;;;;;;;;10245561;28;20260;-75
2021/01/29 10:36:02;;;;;;;24.87;4.73;;;;;;;;;;10246679;28;20596;-74
2021/01/29 10:41:07;;;;;;;22.93;4.43;;;;;;;;;;10251080;28;20828;-75
2021/01/29 10:46:16;;;;;;;24.50;5.00;;;;;;;;;;10245768;28;20221;-74
2021/01/29 10:51:24;;;;;;;21.70;4.67;;;;;;;;;;10240643;28;20252;-74
2021/01/29 10:56:28;;;;;;;21.53;4.20;;;;;;;;;;10249498;28;20771;-75
2021/01/29 11:01:33;;;;;;;22.40;4.30;;;;;;;;;;10242755;28;20234;-75
2021/01/29 11:06:41;;;;;;;20.90;3.93;;;;;;;;;;10249942;28;20206;-75
2021/01/29 11:11:48;;;;;;;27.07;4.80;;;;;;;;;;10245377;28;20253;-75
2021/01/29 11:16:54;;;;;;;21.73;4.10;;;;;;;;;;10234073;28;20246;-75
2021/01/29 11:22:05;;;;;;;22.03;4.03;;;;;;;;;;10241471;28;20687;-75
2021/01/29 11:27:14;;;;;;;20.97;4.20;;;;;;;;;;10256109;28;20210;-74
2021/01/29 11:32:28;;;;;;;19.93;4.63;;;;;;;;;;10253735;28;20238;-75
2021/01/29 11:37:32;;;;;;;16.37;3.77;;;;;;;;;;10254677;28;20217;-75
2021/01/29 11:42:38;;;;;;;22.50;4.13;;;;;;;;;;10249242;28;20229;-76
2021/01/29 11:47:45;;;;;;;22.27;4.23;;;;;;;;;;10257932;28;20224;-76
2021/01/29 11:52:55;;;;;;;20.53;4.00;;;;;;;;;;10248257;28;20246;-75
2021/01/29 11:58:00;;;;;;;16.57;3.67;;;;;;;;;;10256756;28;20674;-75
2021/01/29 12:03:09;;;;;;;16.60;4.37;;;;;;;;;;10257205;28;20234;-75
2021/01/29 12:08:28;;;;;;;17.07;3.83;;;;;;;;;;10253524;28;20219;-75
2021/01/29 12:13:34;;;;;;;21.13;4.00;;;;;;;;;;10251298;28;20244;-76
2021/01/29 12:18:36;;;;;;;21.03;4.03;;;;;;;;;;10245415;28;20211;-76
2021/01/29 12:23:43;;;;;;;17.57;3.40;;;;;;;;;;10250111;28;20214;-75
2021/01/29 12:29:03;;;;;;;19.70;4.57;;;;;;;;;;10249823;28;20587;-75
2021/01/29 12:34:09;;;;;;;20.17;3.77;;;;;;;;;;10251831;28;20268;-75
2021/01/29 12:39:20;;;;;;;22.77;4.40;;;;;;;;;;10248443;28;20214;-76
2021/01/29 12:44:28;;;;;;;16.13;3.23;;;;;;;;;;10248322;28;20219;-75
2021/01/29 12:49:36;;;;;;;17.20;4.00;;;;;;;;;;10252119;28;20253;-76
2021/01/29 12:54:56;;;;;;;18.43;3.70;;;;;;;;;;10253261;28;20249;-73
2021/01/29 13:00:06;;;;;;;17.17;3.73;;;;;;;;;;10253303;28;20569;-77
2021/01/29 13:05:22;;;;;;;22.37;3.43;;;;;;;;;;10243361;28;20230;-75
2021/01/29 13:10:27;;;;;;;20.63;3.93;;;;;;;;;;10248822;28;20209;-76
2021/01/29 13:15:40;;;;;;;18.93;3.67;;;;;;;;;;10251421;28;20224;-76
2021/01/29 13:20:45;;;;;;;22.33;4.13;;;;;;;;;;10257770;28;20287;-76
2021/01/29 13:25:55;;;;;;;17.63;3.80;;;;;;;;;;10255091;28;20218;-74
2021/01/29 13:31:10;;;;;;;18.53;3.50;;;;;;;;;;10253384;28;20246;-75
2021/01/29 13:36:18;;;;;;;17.90;3.57;;;;;;;;;;10254761;28;20214;-75
2021/01/29 13:41:22;;;;;;;15.60;3.40;;;;;;;;;;10248816;28;20217;-76
2021/01/29 13:46:28;;;;;;;19.93;3.90;;;;;;;;;;10253831;28;20234;-74
2021/01/29 13:51:32;;;;;;;18.73;3.60;;;;;;;;;;10247661;28;20645;-75
2021/01/29 13:56:38;;;;;;;21.77;4.37;;;;;;;;;;10235720;28;20218;-74
2021/01/29 14:01:43;;;;;;;21.10;4.30;;;;;;;;;;10250254;28;20326;-76
2021/01/29 14:06:46;;;;;;;20.57;4.00;;;;;;;;;;10249075;28;20230;-75
2021/01/29 14:11:55;;;;;;;20.10;3.63;;;;;;;;;;10256752;28;20245;-75
2021/01/29 14:17:02;;;;;;;18.90;3.23;;;;;;;;;;10256045;28;20800;-74
2021/01/29 14:22:10;;;;;;;22.30;3.60;;;;;;;;;;10255627;28;20221;-75
2021/01/29 14:27:16;;;;;;;16.90;3.43;;;;;;;;;;10244894;28;20215;-76
2021/01/29 14:32:36;;;;;;;22.10;3.80;;;;;;;;;;10250753;28;20722;-76
2021/01/29 14:37:48;;;;;;;18.33;3.80;;;;;;;;;;10249841;28;20703;-76
2021/01/29 14:42:55;;;;;;;14.83;3.87;;;;;;;;;;10249182;28;20214;-76
2021/01/29 14:48:15;;;;;;;23.03;4.40;;;;;;;;;;10254729;28;20230;-76
2021/01/29 14:53:30;;;;;;;18.20;3.80;;;;;;;;;;10243624;28;20237;-74
2021/01/29 14:58:33;;;;;;;21.70;4.20;;;;;;;;;;10260365;28;20301;-76
2021/01/29 15:03:37;;;;;;;19.60;4.43;;;;;;;;;;10255936;28;20238;-79
2021/01/29 15:08:48;;;;;;;24.77;4.30;;;;;;;;;;10255223;28;20564;-77
2021/01/29 15:13:56;;;;;;;17.00;3.33;;;;;;;;;;10249336;28;20246;-77
2021/01/29 15:18:58;;;;;;;17.07;3.50;;;;;;;;;;10256446;28;20306;-77
2021/01/29 15:24:02;;;;;;;19.30;3.53;;;;;;;;;;10251901;28;20218;-76
2021/01/29 15:29:09;;;;;;;17.83;3.80;;;;;;;;;;10255221;28;20541;-78
2021/01/29 15:34:11;;;;;;;23.97;4.00;;;;;;;;;;10254331;28;20245;-80
2021/01/29 15:39:31;;;;;;;23.80;4.60;;;;;;;;;;10256518;28;20312;-78
2021/01/29 15:44:50;;;;;;;19.03;3.63;;;;;;;;;;10251679;28;20218;-79
2021/01/29 15:49:52;;;;;;;21.47;3.93;;;;;;;;;;10258996;28;20705;-79
2021/01/29 15:54:56;;;;;;;17.17;3.30;;;;;;;;;;10256051;28;20242;-78
2021/01/29 15:59:59;;;;;;;23.17;3.93;;;;;;;;;;10251265;28;20676;-77
2021/01/29 16:05:01;;;;;;;17.40;3.73;;;;;;;;;;10251073;28;20235;-76
2021/01/29 16:10:10;;;;;;;17.23;3.23;;;;;;;;;;10247351;28;20219;-84
2021/01/29 16:15:15;;;;;;;14.53;3.07;;;;;;;;;;10528308;23;20253;-83
2021/01/29 16:20:18;;;;;;;14.63;3.53;;;;;;;;;;10328667;28;20214;-82
2021/01/29 16:25:20;;;;;;;18.37;3.73;;;;;;;;;;10324305;28;20701;-83
2021/01/29 16:30:25;;;;;;;18.27;3.73;;;;;;;;;;10333150;28;20766;-79
2021/01/29 16:35:29;;;;;;;13.90;3.40;;;;;;;;;;10333165;28;20736;-82
2021/01/29 16:40:35;;;;;;;13.47;3.50;;;;;;;;;;10327202;28;20220;-81
2021/01/29 16:45:38;;;;;;;14.63;3.03;;;;;;;;;;10330378;28;20217;-82
2021/01/29 16:50:42;;;;;;;18.60;3.43;;;;;;;;;;10335929;28;20209;-82
2021/01/29 16:55:46;;;;;;;12.80;2.90;;;;;;;;;;10331292;28;20587;-82
2021/01/29 17:00:51;;;;;;;13.23;2.93;;;;;;;;;;10327664;28;20225;-82
2021/01/29 17:06:00;;;;;;;12.27;2.90;;;;;;;;;;10323927;28;20689;-83
2021/01/29 17:11:13;;;;;;;18.07;3.30;;;;;;;;;;10329175;28;20577;-82
2021/01/29 17:16:17;;;;;;;12.67;3.03;;;;;;;;;;10296510;28;20233;-83
2021/01/29 17:21:19;;;;;;;16.63;3.33;;;;;;;;;;10283814;28;20214;-81
2021/01/29 17:26:22;;;;;;;15.00;2.73;;;;;;;;;;10297356;28;20221;-86
2021/01/29 17:31:25;;;;;;;13.40;3.23;;;;;;;;;;10294446;28;20240;-81
2021/01/29 17:36:29;;;;;;;13.10;2.87;;;;;;;;;;10293510;28;20218;-86
2021/01/29 17:41:31;;;;;;;10.77;2.50;;;;;;;;;;10293780;28;20218;-82
2021/01/29 17:46:36;;;;;;;13.43;2.70;;;;;;;;;;10288805;28;20670;-87
2021/01/29 17:51:39;;;;;;;14.40;2.93;;;;;;;;;;10289384;28;20237;-77
2021/01/29 17:56:43;;;;;;;17.50;2.90;;;;;;;;;;10288595;28;20543;-78
2021/01/29 18:01:47;;;;;;;11.60;2.47;;;;;;;;;;10285764;28;20859;-78
2021/01/29 18:06:51;;;;;;;13.97;3.00;;;;;;;;;;10286770;28;20224;-79
2021/01/29 18:11:54;;;;;;;14.20;3.10;;;;;;;;;;10292005;28;20536;-79
2021/01/29 18:16:59;;;;;;;14.20;2.47;;;;;;;;;;10296801;28;20234;-80
2021/01/29 18:22:02;;;;;;;11.47;2.73;;;;;;;;;;10290916;28;20641;-80
2021/01/29 18:27:04;;;;;;;15.87;2.77;;;;;;;;;;10287568;28;20221;-80
2021/01/29 18:32:07;;;;;;;17.60;3.07;;;;;;;;;;10287697;28;20241;-81
2021/01/29 18:37:10;;;;;;;16.70;3.30;;;;;;;;;;10304953;28;20607;-82
2021/01/29 18:42:13;;;;;;;11.63;2.77;;;;;;;;;;10304319;28;20216;-81
2021/01/29 18:47:16;;;;;;;12.50;2.53;;;;;;;;;;10301064;28;20217;-79
2021/01/29 18:52:19;;;;;;;8.03;2.00;;;;;;;;;;10299038;28;20317;-79
2021/01/29 18:57:21;;;;;;;7.97;2.13;;;;;;;;;;10300353;28;20225;-81
2021/01/29 19:02:25;;;;;;;9.27;1.87;;;;;;;;;;10301799;28;20574;-81
2021/01/29 19:07:27;;;;;;;7.73;1.90;;;;;;;;;;10299347;28;20243;-81
2021/01/29 19:12:29;;;;;;;9.07;2.20;;;;;;;;;;10297160;28;20246;-81
2021/01/29 19:17:32;;;;;;;6.67;1.83;;;;;;;;;;10302561;28;20402;-80
2021/01/29 19:22:34;;;;;;;5.57;1.63;;;;;;;;;;10299374;28;20222;-80
2021/01/29 19:27:37;;;;;;;6.63;2.00;;;;;;;;;;10299654;28;20209;-82
2021/01/29 19:32:40;;;;;;;7.07;2.10;;;;;;;;;;10318917;28;20807;-80
2021/01/29 19:37:43;;;;;;;9.03;1.93;;;;;;;;;;10310299;28;20751;-81
2021/01/29 19:42:45;;;;;;;5.47;1.90;;;;;;;;;;10302881;28;20602;-79
2021/01/29 19:47:48;;;;;;;5.00;1.80;;;;;;;;;;10300494;28;20542;-81
2021/01/29 19:52:51;;;;;;;7.50;2.17;;;;;;;;;;10309664;28;20244;-83
2021/01/29 19:57:53;;;;;;;7.53;2.07;;;;;;;;;;10303216;28;20209;-84
2021/01/29 20:02:56;;;;;;;3.90;1.67;;;;;;;;;;10297198;28;20209;-84
2021/01/29 20:07:58;;;;;;;5.33;1.63;;;;;;;;;;10286196;28;20318;-84
2021/01/29 20:13:04;;;;;;;2.40;1.60;;;;;;;;;;10290248;28;20727;-83
2021/01/29 20:18:11;;;;;;;4.43;1.60;;;;;;;;;;10291182;28;20280;-82
2021/01/29 20:23:14;;;;;;;3.27;1.60;;;;;;;;;;10288656;28;20220;-83
2021/01/29 20:28:17;;;;;;;3.00;1.40;;;;;;;;;;10290051;28;20232;-83
2021/01/29 20:33:20;;;;;;;3.53;1.50;;;;;;;;;;10292820;28;20229;-83
2021/01/29 20:38:22;;;;;;;4.27;1.90;;;;;;;;;;10289219;28;20611;-83
2021/01/29 20:43:24;;;;;;;6.00;1.90;;;;;;;;;;10290281;28;20590;-82
2021/01/29 20:48:27;;;;;;;5.70;2.23;;;;;;;;;;10291779;28;20257;-84
2021/01/29 20:53:29;;;;;;;6.67;2.10;;;;;;;;;;10289714;28;20246;-82
2021/01/29 20:58:31;;;;;;;8.57;2.27;;;;;;;;;;10284463;28;20214;-83
2021/01/29 21:03:37;;;;;;;7.77;2.47;;;;;;;;;;10288861;28;20218;-84
2021/01/29 21:08:40;;;;;;;4.57;2.00;;;;;;;;;;10291773;28;20288;-82
2021/01/29 21:13:42;;;;;;;8.03;2.10;;;;;;;;;;10295599;28;20264;-84
2021/01/29 21:18:44;;;;;;;7.67;2.60;;;;;;;;;;10288363;28;20226;-85
2021/01/29 21:23:46;;;;;;;9.30;2.60;;;;;;;;;;10289148;28;20537;-82
2021/01/29 21:28:48;;;;;;;7.53;2.57;;;;;;;;;;10286907;28;20724;-82
2021/01/29 21:33:51;;;;;;;7.90;3.20;;;;;;;;;;10292091;28;20241;-82
2021/01/29 21:38:54;;;;;;;10.43;3.30;;;;;;;;;;10283946;28;20325;-82
2021/01/29 21:43:56;;;;;;;10.63;3.20;;;;;;;;;;10286489;28;20214;-83
2021/01/29 21:48:59;;;;;;;8.47;3.30;;;;;;;;;;10284184;28;20220;-83
2021/01/29 21:54:01;;;;;;;11.20;3.40;;;;;;;;;;10286021;28;20238;-79
2021/01/29 21:59:03;;;;;;;10.13;2.80;;;;;;;;;;10279351;28;20324;-81
2021/01/29 22:04:06;;;;;;;8.40;3.13;;;;;;;;;;10293966;28;20637;-81
2021/01/29 22:09:08;;;;;;;8.50;3.20;;;;;;;;;;10294660;28;20591;-84
2021/01/29 22:14:10;;;;;;;15.87;3.20;;;;;;;;;;10287832;28;20339;-86
2021/01/29 22:19:13;;;;;;;12.47;2.90;;;;;;;;;;10288355;28;20311;-85
2021/01/29 22:24:15;;;;;;;6.87;2.60;;;;;;;;;;10286062;28;21015;-84
2021/01/29 22:29:17;;;;;;;5.80;2.60;;;;;;;;;;10292480;28;20213;-85
2021/01/29 22:34:20;;;;;;;10.00;2.30;;;;;;;;;;10286938;28;20390;-84
2021/01/29 22:39:22;;;;;;;8.87;2.33;;;;;;;;;;10291789;28;20217;-84
2021/01/29 22:44:24;;;;;;;5.83;2.60;;;;;;;;;;10297318;28;20229;-85
2021/01/29 22:49:27;;;;;;;7.50;2.40;;;;;;;;;;10295176;28;20298;-85
2021/01/29 22:54:29;;;;;;;11.20;2.67;;;;;;;;;;10289338;28;20237;-84
2021/01/29 22:59:31;;;;;;;7.57;2.47;;;;;;;;;;10285225;28;20808;-86
2021/01/29 23:04:35;;;;;;;8.70;2.30;;;;;;;;;;10290016;28;20301;-84
2021/01/29 23:09:37;;;;;;;6.73;2.50;;;;;;;;;;10287112;28;20688;-84
2021/01/29 23:14:39;;;;;;;6.90;3.07;;;;;;;;;;10287910;28;20246;-83
2021/01/29 23:19:42;;;;;;;5.03;2.00;;;;;;;;;;10292116;28;20296;-83
2021/01/29 23:24:44;;;;;;;5.47;2.00;;;;;;;;;;10299900;28;20629;-84
2021/01/29 23:29:46;;;;;;;6.67;2.33;;;;;;;;;;10304477;28;20213;-86
2021/01/29 23:34:49;;;;;;;5.87;2.00;;;;;;;;;;10307411;28;20494;-85
2021/01/29 23:39:51;;;;;;;8.40;3.20;;;;;;;;;;10304045;28;25241;-85
2021/01/29 23:44:53;;;;;;;11.00;3.80;;;;;;;;;;10311604;28;20284;-84
2021/01/29 23:49:56;;;;;;;15.53;5.43;;;;;;;;;;10313673;28;20520;-85
2021/01/29 23:54:58;;;;;;;8.97;4.03;;;;;;;;;;10309922;28;20271;-84
2021/01/29 23:59:59;;;;;;;6.97;3.00;;;;;;;;;;10299529;28;20213;-85
